createdAt,value
2022-10-04T00:00:34.367Z,1.55
2022-10-04T00:01:34.345Z,1.60
2022-10-04T00:02:34.424Z,1.58
2022-10-04T00:03:34.305Z,1.46
2022-10-04T00:04:34.295Z,1.40
2022-10-04T00:05:34.281Z,1.36
2022-10-04T00:06:34.308Z,1.25
2022-10-04T00:07:34.263Z,1.18
2022-10-04T00:08:34.256Z,1.06
2022-10-04T00:09:34.248Z,0.98
2022-10-04T00:10:34.237Z,0.96
2022-10-04T00:11:34.217Z,1.00
2022-10-04T00:12:34.246Z,0.98
2022-10-04T00:13:34.205Z,1.03
2022-10-04T00:14:34.196Z,1.04
2022-10-04T00:15:34.183Z,1.08
2022-10-04T00:16:34.247Z,1.12
2022-10-04T00:17:34.172Z,1.16
2022-10-04T00:18:34.177Z,1.19
2022-10-04T00:19:34.138Z,1.22
2022-10-04T00:20:34.137Z,1.25
2022-10-04T00:21:34.118Z,1.28
2022-10-04T00:22:34.117Z,1.22
2022-10-04T00:23:34.118Z,1.22
2022-10-04T00:24:34.127Z,1.12
2022-10-04T00:25:34.078Z,1.10
2022-10-04T00:26:34.079Z,1.10
2022-10-04T00:27:34.061Z,1.07
2022-10-04T00:28:34.165Z,1.07
2022-10-04T00:29:34.040Z,1.10
2022-10-04T00:30:34.065Z,1.19
2022-10-04T00:31:34.074Z,1.26
2022-10-04T00:32:34.018Z,1.36
2022-10-04T00:33:34.010Z,1.39
2022-10-04T00:34:34.002Z,1.43
2022-10-04T00:35:33.984Z,1.50
2022-10-04T00:36:34.021Z,1.52
2022-10-04T00:37:33.970Z,1.51
2022-10-04T00:38:33.958Z,1.43
2022-10-04T00:39:33.942Z,1.43
2022-10-04T00:40:33.930Z,1.43
2022-10-04T00:41:33.922Z,1.44
2022-10-04T00:42:33.957Z,1.43
2022-10-04T00:43:33.902Z,1.50
2022-10-04T00:44:33.900Z,1.50
2022-10-04T00:45:33.885Z,1.52
2022-10-04T00:46:33.898Z,1.54
2022-10-04T00:47:33.864Z,1.57
2022-10-04T00:48:33.891Z,1.54
2022-10-04T00:49:33.843Z,1.54
2022-10-04T00:50:33.851Z,1.46
2022-10-04T00:51:33.824Z,1.42
2022-10-04T00:52:33.812Z,1.42
2022-10-04T00:53:33.801Z,1.43
2022-10-04T00:54:33.836Z,1.40
2022-10-04T00:55:33.783Z,1.40
2022-10-04T00:56:33.773Z,1.43
2022-10-04T00:57:33.762Z,1.51
2022-10-04T00:58:33.761Z,1.54
2022-10-04T00:59:33.750Z,1.54
2022-10-04T01:00:33.773Z,1.43
2022-10-04T01:01:33.784Z,1.29
2022-10-04T01:02:33.791Z,1.22
2022-10-04T01:03:33.708Z,1.15
2022-10-04T01:04:33.702Z,1.14
2022-10-04T01:05:33.684Z,1.15
2022-10-04T01:06:33.704Z,1.16
2022-10-04T01:07:33.664Z,1.15
2022-10-04T01:08:33.661Z,1.10
2022-10-04T01:09:33.650Z,1.07
2022-10-04T01:10:33.634Z,1.04
2022-10-04T01:11:33.642Z,1.04
2022-10-04T01:12:33.654Z,1.06
2022-10-04T01:13:33.605Z,1.06
2022-10-04T01:14:33.598Z,1.07
2022-10-04T01:15:33.687Z,1.06
2022-10-04T01:16:33.591Z,1.06
2022-10-04T01:17:33.566Z,1.07
2022-10-04T01:18:33.594Z,1.07
2022-10-04T01:19:33.548Z,1.08
2022-10-04T01:20:33.536Z,1.08
2022-10-04T01:21:33.527Z,1.10
2022-10-04T01:22:33.517Z,1.07
2022-10-04T01:23:33.506Z,1.03
2022-10-04T01:24:33.524Z,1.03
2022-10-04T01:25:33.488Z,1.04
2022-10-04T01:26:33.486Z,1.07
2022-10-04T01:27:33.464Z,1.14
2022-10-04T01:28:33.512Z,1.19
2022-10-04T01:29:33.449Z,1.24
2022-10-04T01:30:33.467Z,1.28
2022-10-04T01:31:33.511Z,1.32
2022-10-04T01:32:33.417Z,1.33
2022-10-04T01:33:33.408Z,1.28
2022-10-04T01:34:33.397Z,1.25
2022-10-04T01:35:33.379Z,1.21
2022-10-04T01:36:33.406Z,1.21
2022-10-04T01:37:33.367Z,1.22
2022-10-04T01:38:33.358Z,1.28
2022-10-04T01:39:33.353Z,1.33
2022-10-04T01:40:33.338Z,1.50
2022-10-04T01:41:33.319Z,1.65
2022-10-04T01:42:33.348Z,1.64
2022-10-04T01:43:33.306Z,1.58
2022-10-04T01:44:33.299Z,1.65
2022-10-04T01:45:33.290Z,1.69
2022-10-04T01:46:33.336Z,1.62
2022-10-04T01:47:33.275Z,1.54
2022-10-04T01:48:33.293Z,1.42
2022-10-04T01:49:33.240Z,1.36
2022-10-04T01:50:33.241Z,1.28
2022-10-04T01:51:33.231Z,1.26
2022-10-04T01:52:33.209Z,1.28
2022-10-04T01:53:33.211Z,1.28
2022-10-04T01:54:33.228Z,1.25
2022-10-04T01:55:33.182Z,1.28
2022-10-04T01:56:33.183Z,1.32
2022-10-04T01:57:33.171Z,1.33
2022-10-04T01:58:33.161Z,1.39
2022-10-04T01:59:33.150Z,1.42
2022-10-04T02:00:33.171Z,1.36
2022-10-04T02:01:33.158Z,1.32
2022-10-04T02:02:33.123Z,1.21
2022-10-04T02:03:33.164Z,1.14
2022-10-04T02:04:33.225Z,1.03
2022-10-04T02:05:33.082Z,0.96
2022-10-04T02:06:33.113Z,0.90
2022-10-04T02:07:33.064Z,0.92
2022-10-04T02:08:33.062Z,0.98
2022-10-04T02:09:33.052Z,1.06
2022-10-04T02:10:33.034Z,1.10
2022-10-04T02:11:33.036Z,1.18
2022-10-04T02:12:33.044Z,1.19
2022-10-04T02:13:33.015Z,1.22
2022-10-04T02:14:32.994Z,1.24
2022-10-04T02:15:32.995Z,1.26
2022-10-04T02:16:33.015Z,1.32
2022-10-04T02:17:32.976Z,1.19
2022-10-04T02:18:32.986Z,1.18
2022-10-04T02:19:32.957Z,1.21
2022-10-04T02:20:32.938Z,1.25
2022-10-04T02:21:32.931Z,1.29
2022-10-04T02:22:32.923Z,1.34
2022-10-04T02:23:32.916Z,1.18
2022-10-04T02:24:32.925Z,1.04
2022-10-04T02:25:32.886Z,1.01
2022-10-04T02:26:32.874Z,1.01
2022-10-04T02:27:32.865Z,1.01
2022-10-04T02:28:32.895Z,1.04
2022-10-04T02:29:32.853Z,1.04
2022-10-04T02:30:32.858Z,1.08
2022-10-04T02:31:32.916Z,1.15
2022-10-04T02:32:32.817Z,1.18
2022-10-04T02:33:32.806Z,1.22
2022-10-04T02:34:32.795Z,1.26
2022-10-04T02:35:32.787Z,1.32
2022-10-04T02:36:32.796Z,1.36
2022-10-04T02:37:32.773Z,1.39
2022-10-04T02:38:32.757Z,1.42
2022-10-04T02:39:32.747Z,1.39
2022-10-04T02:40:32.739Z,1.34
2022-10-04T02:41:32.727Z,1.29
2022-10-04T02:42:32.747Z,1.21
2022-10-04T02:43:33.069Z,1.16
2022-10-04T02:44:32.696Z,1.15
2022-10-04T02:45:32.688Z,1.15
2022-10-04T02:46:32.753Z,1.18
2022-10-04T02:47:32.668Z,1.22
2022-10-04T02:48:32.679Z,1.22
2022-10-04T02:49:32.647Z,1.25
2022-10-04T02:50:32.637Z,1.21
2022-10-04T02:51:32.640Z,1.16
2022-10-04T02:52:32.667Z,1.16
2022-10-04T02:53:32.618Z,1.19
2022-10-04T02:54:32.629Z,1.22
2022-10-04T02:55:32.590Z,1.25
2022-10-04T02:56:32.577Z,1.29
2022-10-04T02:57:32.575Z,1.33
2022-10-04T02:58:32.551Z,1.26
2022-10-04T02:59:35.360Z,1.22
2022-10-04T03:00:32.561Z,1.18
2022-10-04T03:01:32.530Z,1.12
2022-10-04T03:02:32.559Z,0.94
2022-10-04T03:03:32.549Z,0.82
2022-10-04T03:04:32.502Z,0.68
2022-10-04T03:05:32.489Z,0.62
2022-10-04T03:06:32.502Z,0.61
2022-10-04T03:07:32.471Z,0.60
2022-10-04T03:08:32.452Z,0.61
2022-10-04T03:09:32.452Z,0.67
2022-10-04T03:10:32.446Z,0.71
2022-10-04T03:11:32.504Z,0.71
2022-10-04T03:12:32.453Z,0.67
2022-10-04T03:13:32.407Z,0.65
2022-10-04T03:14:32.391Z,0.67
2022-10-04T03:15:32.390Z,0.68
2022-10-04T03:16:32.406Z,0.68
2022-10-04T03:17:32.363Z,0.71
2022-10-04T03:18:32.390Z,0.75
2022-10-04T03:19:32.353Z,0.79
2022-10-04T03:20:32.333Z,0.85
2022-10-04T03:21:32.334Z,0.92
2022-10-04T03:22:32.313Z,0.92
2022-10-04T03:23:32.314Z,0.92
2022-10-04T03:24:32.342Z,0.92
2022-10-04T03:25:32.283Z,0.92
2022-10-04T03:26:32.277Z,0.90
2022-10-04T03:27:32.274Z,0.89
2022-10-04T03:28:32.358Z,0.88
2022-10-04T03:29:32.247Z,0.83
2022-10-04T03:30:32.265Z,0.78
2022-10-04T03:31:32.257Z,0.80
2022-10-04T03:32:32.215Z,0.85
2022-10-04T03:33:32.205Z,0.89
2022-10-04T03:34:32.193Z,0.96
2022-10-04T03:35:32.186Z,1.01
2022-10-04T03:36:32.204Z,1.06
2022-10-04T03:37:32.178Z,1.10
2022-10-04T03:38:32.157Z,1.15
2022-10-04T03:39:32.153Z,1.19
2022-10-04T03:40:32.135Z,1.25
2022-10-04T03:41:32.132Z,1.28
2022-10-04T03:42:32.147Z,1.28
2022-10-04T03:43:32.117Z,1.32
2022-10-04T03:44:32.095Z,1.33
2022-10-04T03:45:32.109Z,1.34
2022-10-04T03:46:32.081Z,1.36
2022-10-04T03:47:32.066Z,1.37
2022-10-04T03:48:32.087Z,1.39
2022-10-04T03:49:32.046Z,1.40
2022-10-04T03:50:32.039Z,1.40
2022-10-04T03:51:32.034Z,1.37
2022-10-04T03:52:32.017Z,1.37
2022-10-04T03:53:32.011Z,1.32
2022-10-04T03:54:32.019Z,1.22
2022-10-04T03:55:32.006Z,1.12
2022-10-04T03:56:31.969Z,1.14
2022-10-04T03:57:31.970Z,1.15
2022-10-04T03:58:31.958Z,1.15
2022-10-04T03:59:31.948Z,1.07
2022-10-04T04:00:31.961Z,0.96
2022-10-04T04:01:31.960Z,0.88
2022-10-04T04:02:32.005Z,0.80
2022-10-04T04:03:31.909Z,0.83
2022-10-04T04:04:31.896Z,0.88
2022-10-04T04:05:31.890Z,0.85
2022-10-04T04:06:31.899Z,0.79
2022-10-04T04:07:31.868Z,0.75
2022-10-04T04:08:31.861Z,0.72
2022-10-04T04:09:31.848Z,0.76
2022-10-04T04:10:31.829Z,0.80
2022-10-04T04:11:31.831Z,0.80
2022-10-04T04:12:31.840Z,0.82
2022-10-04T04:13:31.809Z,0.85
2022-10-04T04:14:31.800Z,0.90
2022-10-04T04:15:31.791Z,0.96
2022-10-04T04:16:31.902Z,0.92
2022-10-04T04:17:31.772Z,0.90
2022-10-04T04:18:31.781Z,0.90
2022-10-04T04:19:31.748Z,0.96
2022-10-04T04:20:31.733Z,0.90
2022-10-04T04:21:31.720Z,0.76
2022-10-04T04:22:31.719Z,0.62
2022-10-04T04:23:31.711Z,0.52
2022-10-04T04:24:31.722Z,0.41
2022-10-04T04:25:31.692Z,0.36
2022-10-04T04:26:31.671Z,0.31
2022-10-04T04:27:31.662Z,0.28
2022-10-04T04:28:31.710Z,0.27
2022-10-04T04:29:31.664Z,0.25
2022-10-04T04:30:31.704Z,0.28
2022-10-04T04:31:31.669Z,0.30
2022-10-04T04:32:31.613Z,0.30
2022-10-04T04:33:31.613Z,0.30
2022-10-04T04:34:31.593Z,0.33
2022-10-04T04:35:31.583Z,0.39
2022-10-04T04:36:31.611Z,0.48
2022-10-04T04:37:31.573Z,0.58
2022-10-04T04:38:31.550Z,0.71
2022-10-04T04:39:31.555Z,0.78
2022-10-04T04:40:31.534Z,0.83
2022-10-04T04:41:31.529Z,0.89
2022-10-04T04:42:31.534Z,0.94
2022-10-04T04:43:31.505Z,0.98
2022-10-04T04:44:31.495Z,1.01
2022-10-04T04:45:31.559Z,1.06
2022-10-04T04:46:31.554Z,1.08
2022-10-04T04:47:31.465Z,1.12
2022-10-04T04:48:31.483Z,1.14
2022-10-04T04:49:31.452Z,1.15
2022-10-04T04:50:31.432Z,1.18
2022-10-04T04:51:31.433Z,1.19
2022-10-04T04:52:31.414Z,1.19
2022-10-04T04:53:31.406Z,1.19
2022-10-04T04:54:31.382Z,1.22
2022-10-04T04:55:40.055Z,1.22
2022-10-04T04:56:32.325Z,1.24
2022-10-04T04:57:31.337Z,1.24
2022-10-04T04:58:31.308Z,1.25
2022-10-04T04:59:31.347Z,1.25
2022-10-04T05:00:31.306Z,1.24
2022-10-04T05:01:31.332Z,1.14
2022-10-04T05:02:31.309Z,0.98
2022-10-04T05:03:31.256Z,0.92
2022-10-04T05:04:31.254Z,0.89
2022-10-04T05:05:31.228Z,0.90
2022-10-04T05:06:31.257Z,0.90
2022-10-04T05:07:31.226Z,0.88
2022-10-04T05:08:31.197Z,0.85
2022-10-04T05:09:31.197Z,0.83
2022-10-04T05:10:31.186Z,0.83
2022-10-04T05:11:31.184Z,0.79
2022-10-04T05:12:31.187Z,0.78
2022-10-04T05:13:31.158Z,0.76
2022-10-04T05:14:31.146Z,0.78
2022-10-04T05:15:31.128Z,0.80
2022-10-04T05:16:31.200Z,0.82
2022-10-04T05:17:31.113Z,0.80
2022-10-04T05:18:31.148Z,0.76
2022-10-04T05:19:31.104Z,0.72
2022-10-04T05:20:31.079Z,0.70
2022-10-04T05:21:31.077Z,0.65
2022-10-04T05:22:31.060Z,0.65
2022-10-04T05:23:31.056Z,0.70
2022-10-04T05:24:31.208Z,0.78
2022-10-04T05:25:31.031Z,0.85
2022-10-04T05:26:31.029Z,0.92
2022-10-04T05:27:31.018Z,0.97
2022-10-04T05:28:31.029Z,1.00
2022-10-04T05:29:31.000Z,1.00
2022-10-04T05:30:31.000Z,0.96
2022-10-04T05:31:31.042Z,0.86
2022-10-04T05:32:30.960Z,0.79
2022-10-04T05:33:33.862Z,0.72
2022-10-04T05:34:30.941Z,0.76
2022-10-04T05:35:30.931Z,0.80
2022-10-04T05:36:30.962Z,0.83
2022-10-04T05:37:30.910Z,0.86
2022-10-04T05:38:30.901Z,0.89
2022-10-04T05:39:30.899Z,0.92
2022-10-04T05:40:30.887Z,0.94
2022-10-04T05:41:33.490Z,1.00
2022-10-04T05:42:30.882Z,1.03
2022-10-04T05:43:30.854Z,1.04
2022-10-04T05:44:30.844Z,1.08
2022-10-04T05:45:30.902Z,1.14
2022-10-04T05:46:30.822Z,1.18
2022-10-04T05:47:30.822Z,1.24
2022-10-04T05:48:30.832Z,1.29
2022-10-04T05:49:30.792Z,1.34
2022-10-04T05:50:30.774Z,1.39
2022-10-04T05:51:30.777Z,1.43
2022-10-04T05:52:30.761Z,1.46
2022-10-04T05:53:30.754Z,1.51
2022-10-04T05:54:30.773Z,1.54
2022-10-04T05:55:30.732Z,1.57
2022-10-04T05:56:30.723Z,1.60
2022-10-04T05:57:30.723Z,1.61
2022-10-04T05:58:30.703Z,1.64
2022-10-04T05:59:30.694Z,1.65
2022-10-04T06:00:30.984Z,1.68
2022-10-04T06:01:30.750Z,1.68
2022-10-04T06:02:30.731Z,1.68
2022-10-04T06:03:30.654Z,1.71
2022-10-04T06:04:30.636Z,1.71
2022-10-04T06:05:30.635Z,1.73
2022-10-04T06:06:30.643Z,1.73
2022-10-04T06:07:30.614Z,1.76
2022-10-04T06:08:30.602Z,1.78
2022-10-04T06:09:30.597Z,1.80
2022-10-04T06:10:30.587Z,1.80
2022-10-04T06:11:30.574Z,1.82
2022-10-04T06:12:30.593Z,1.83
2022-10-04T06:13:30.557Z,1.89
2022-10-04T06:14:30.548Z,1.91
2022-10-04T06:15:30.536Z,1.93
2022-10-04T06:16:30.561Z,1.97
2022-10-04T06:17:30.517Z,1.98
2022-10-04T06:18:30.524Z,2.01
2022-10-04T06:19:30.497Z,2.02
2022-10-04T06:20:30.629Z,2.08
2022-10-04T06:21:30.477Z,2.09
2022-10-04T06:22:30.474Z,2.09
2022-10-04T06:23:30.458Z,2.10
2022-10-04T06:24:30.488Z,2.10
2022-10-04T06:25:30.437Z,2.12
2022-10-04T06:26:30.428Z,2.15
2022-10-04T06:27:30.419Z,2.19
2022-10-04T06:28:30.481Z,2.20
2022-10-04T06:29:30.388Z,2.19
2022-10-04T06:30:30.496Z,2.16
2022-10-04T06:31:30.369Z,2.19
2022-10-04T06:32:30.369Z,2.19
2022-10-04T06:33:30.350Z,2.19
2022-10-04T06:34:30.347Z,2.22
2022-10-04T06:35:30.339Z,2.26
2022-10-04T06:36:30.368Z,2.28
2022-10-04T06:37:30.367Z,2.34
2022-10-04T06:38:30.440Z,2.37
2022-10-04T06:39:30.303Z,2.41
2022-10-04T06:40:30.288Z,2.48
2022-10-04T06:41:30.270Z,2.51
2022-10-04T06:42:30.302Z,2.53
2022-10-04T06:43:30.252Z,2.59
2022-10-04T06:44:30.241Z,2.63
2022-10-04T06:45:30.242Z,2.67
2022-10-04T06:46:30.339Z,2.71
2022-10-04T06:47:30.216Z,2.74
2022-10-04T06:48:30.277Z,2.79
2022-10-04T06:49:30.214Z,2.82
2022-10-04T06:50:30.201Z,2.84
2022-10-04T06:51:30.183Z,2.87
2022-10-04T06:52:30.177Z,2.88
2022-10-04T06:53:30.159Z,2.91
2022-10-04T06:54:30.181Z,2.94
2022-10-04T06:55:30.133Z,2.97
2022-10-04T06:56:30.141Z,3.00
2022-10-04T06:57:30.113Z,3.05
2022-10-04T06:58:30.103Z,3.05
2022-10-04T06:59:30.094Z,3.09
2022-10-04T07:00:30.122Z,3.13
2022-10-04T07:01:30.096Z,3.16
2022-10-04T07:02:30.120Z,3.16
2022-10-04T07:03:30.054Z,3.16
2022-10-04T07:04:41.155Z,3.18
2022-10-04T07:05:31.063Z,3.24
2022-10-04T07:06:30.025Z,3.28
2022-10-04T07:07:30.005Z,3.33
2022-10-04T07:08:30.005Z,3.36
2022-10-04T07:09:29.994Z,3.40
2022-10-04T07:10:29.984Z,3.42
2022-10-04T07:11:30.009Z,3.39
2022-10-04T07:12:29.973Z,3.34
2022-10-04T07:13:29.952Z,3.39
2022-10-04T07:14:29.947Z,3.39
2022-10-04T07:15:29.944Z,3.42
2022-10-04T07:16:29.927Z,3.42
2022-10-04T07:17:29.946Z,3.43
2022-10-04T07:18:29.897Z,3.47
2022-10-04T07:19:29.894Z,3.44
2022-10-04T07:20:29.886Z,3.46
2022-10-04T07:21:29.868Z,3.47
2022-10-04T07:22:29.876Z,3.53
2022-10-04T07:23:29.877Z,3.57
2022-10-04T07:24:29.838Z,3.61
2022-10-04T07:25:29.830Z,3.65
2022-10-04T07:26:29.823Z,3.71
2022-10-04T07:27:29.805Z,3.70
2022-10-04T07:28:29.864Z,3.72
2022-10-04T07:29:29.809Z,3.76
2022-10-04T07:30:29.779Z,3.82
2022-10-04T07:31:29.818Z,3.89
2022-10-04T07:32:29.762Z,3.92
2022-10-04T07:33:29.778Z,3.97
2022-10-04T07:34:29.747Z,4.06
2022-10-04T07:35:29.763Z,4.07
2022-10-04T07:36:29.720Z,4.10
2022-10-04T07:37:30.428Z,4.14
2022-10-04T07:38:30.458Z,4.07
2022-10-04T07:39:29.681Z,4.08
2022-10-04T07:40:29.681Z,4.15
2022-10-04T07:41:29.717Z,4.19
2022-10-04T07:42:29.662Z,4.21
2022-10-04T07:43:29.671Z,4.15
2022-10-04T07:44:29.643Z,4.18
2022-10-04T07:45:30.270Z,4.15
2022-10-04T07:46:29.700Z,4.04
2022-10-04T07:47:29.640Z,4.07
2022-10-04T07:48:29.602Z,4.14
2022-10-04T07:49:30.323Z,4.24
2022-10-04T07:50:29.584Z,4.29
2022-10-04T07:51:29.569Z,4.40
2022-10-04T07:52:29.650Z,4.47
2022-10-04T07:53:29.587Z,4.57
2022-10-04T07:54:29.543Z,4.61
2022-10-04T07:55:30.226Z,4.65
2022-10-04T07:56:30.214Z,4.70
2022-10-04T07:57:29.509Z,4.77
2022-10-04T07:58:29.502Z,4.86
2022-10-04T07:59:29.969Z,4.94
2022-10-04T08:00:29.482Z,5.05
2022-10-04T08:01:29.493Z,5.14
2022-10-04T08:02:31.305Z,5.22
2022-10-04T08:03:29.511Z,5.32
2022-10-04T08:04:29.444Z,5.31
2022-10-04T08:05:29.452Z,5.28
2022-10-04T08:06:29.424Z,5.40
2022-10-04T08:07:29.413Z,5.50
2022-10-04T08:08:29.413Z,5.59
2022-10-04T08:09:29.384Z,5.66
2022-10-04T08:10:29.381Z,5.77
2022-10-04T08:11:29.409Z,5.86
2022-10-04T08:12:29.391Z,5.95
2022-10-04T08:13:29.347Z,5.96
2022-10-04T08:14:29.336Z,5.95
2022-10-04T08:15:29.397Z,5.95
2022-10-04T08:16:29.320Z,6.01
2022-10-04T08:17:29.346Z,6.07
2022-10-04T08:18:29.304Z,6.11
2022-10-04T08:19:29.284Z,6.18
2022-10-04T08:20:29.277Z,6.25
2022-10-04T08:21:29.268Z,6.29
2022-10-04T08:22:29.259Z,6.22
2022-10-04T08:23:29.267Z,6.10
2022-10-04T08:24:29.238Z,5.91
2022-10-04T08:25:29.225Z,5.83
2022-10-04T08:26:29.210Z,5.89
2022-10-04T08:27:29.208Z,6.04
2022-10-04T08:28:29.242Z,6.14
2022-10-04T08:29:29.218Z,6.29
2022-10-04T08:30:29.182Z,6.38
2022-10-04T08:31:29.222Z,6.48
2022-10-04T08:32:29.199Z,6.58
2022-10-04T08:33:29.150Z,6.65
2022-10-04T08:34:29.143Z,6.72
2022-10-04T08:35:29.162Z,6.80
2022-10-04T08:36:29.115Z,6.87
2022-10-04T08:37:29.102Z,6.97
2022-10-04T08:38:29.099Z,7.04
2022-10-04T08:39:29.082Z,7.16
2022-10-04T08:40:29.080Z,7.29
2022-10-04T08:41:29.167Z,7.40
2022-10-04T08:42:29.061Z,7.52
2022-10-04T08:43:29.043Z,7.62
2022-10-04T08:44:29.032Z,7.72
2022-10-04T08:45:29.022Z,7.79
2022-10-04T08:46:29.125Z,7.84
2022-10-04T08:47:29.030Z,7.89
2022-10-04T08:48:28.994Z,7.92
2022-10-04T08:49:28.984Z,7.93
2022-10-04T08:50:28.983Z,7.87
2022-10-04T08:51:28.964Z,7.85
2022-10-04T08:52:28.955Z,7.85
2022-10-04T08:53:28.966Z,7.85
2022-10-04T08:54:28.928Z,7.85
2022-10-04T08:55:28.917Z,7.84
2022-10-04T08:56:29.855Z,7.87
2022-10-04T08:57:28.904Z,7.87
2022-10-04T08:58:28.893Z,7.87
2022-10-04T08:59:28.907Z,7.85
2022-10-04T09:00:28.874Z,7.89
2022-10-04T09:01:28.959Z,7.89
2022-10-04T09:02:28.917Z,7.84
2022-10-04T09:03:28.837Z,7.84
2022-10-04T09:04:28.829Z,7.84
2022-10-04T09:05:28.847Z,7.85
2022-10-04T09:06:28.840Z,7.90
2022-10-04T09:07:28.797Z,7.92
2022-10-04T09:08:28.790Z,7.92
2022-10-04T09:09:28.787Z,7.97
2022-10-04T09:10:28.769Z,8.03
2022-10-04T09:11:28.788Z,8.10
2022-10-04T09:12:29.018Z,8.14
2022-10-04T09:13:28.728Z,8.17
2022-10-04T09:14:28.727Z,8.21
2022-10-04T09:15:28.779Z,8.26
2022-10-04T09:16:28.753Z,8.32
2022-10-04T09:17:28.740Z,8.35
2022-10-04T09:18:28.683Z,8.35
2022-10-04T09:19:28.669Z,8.36
2022-10-04T09:20:39.767Z,8.40
2022-10-04T09:21:29.641Z,8.45
2022-10-04T09:22:28.766Z,8.48
2022-10-04T09:23:28.781Z,8.51
2022-10-04T09:24:28.662Z,8.54
2022-10-04T09:25:28.660Z,8.62
2022-10-04T09:26:28.659Z,8.72
2022-10-04T09:27:53.525Z,8.87
2022-10-04T09:28:29.797Z,9.01
2022-10-04T09:29:28.674Z,9.10
2022-10-04T09:30:28.693Z,9.18
2022-10-04T09:31:28.657Z,9.21
2022-10-04T09:32:28.542Z,9.21
2022-10-04T09:33:28.606Z,9.24
2022-10-04T09:34:28.683Z,9.25
2022-10-04T09:35:28.687Z,9.28
2022-10-04T09:36:28.624Z,9.30
2022-10-04T09:37:28.634Z,9.31
2022-10-04T09:38:28.518Z,9.32
2022-10-04T09:39:31.027Z,9.38
2022-10-04T09:40:28.648Z,9.43
2022-10-04T09:41:28.737Z,9.48
2022-10-04T09:42:28.515Z,9.49
2022-10-04T09:43:28.755Z,9.53
2022-10-04T09:44:28.417Z,9.57
2022-10-04T09:45:28.456Z,9.63
2022-10-04T09:46:28.522Z,9.64
2022-10-04T09:47:28.407Z,9.66
2022-10-04T09:48:28.381Z,9.67
2022-10-04T09:49:28.440Z,9.68
2022-10-04T09:50:28.357Z,9.70
2022-10-04T09:51:28.351Z,9.71
2022-10-04T09:52:28.361Z,9.73
2022-10-04T09:53:28.332Z,9.73
2022-10-04T09:54:28.315Z,9.78
2022-10-04T09:55:28.299Z,9.81
2022-10-04T09:56:28.297Z,9.85
2022-10-04T09:57:28.289Z,9.85
2022-10-04T09:58:28.301Z,9.91
2022-10-04T09:59:28.261Z,9.96
2022-10-04T10:00:28.260Z,10.00
2022-10-04T10:01:28.368Z,10.01
2022-10-04T10:02:28.284Z,10.04
2022-10-04T10:03:28.224Z,10.07
2022-10-04T10:04:28.249Z,10.06
2022-10-04T10:05:28.207Z,10.09
2022-10-04T10:06:28.212Z,10.10
2022-10-04T10:07:28.182Z,10.10
2022-10-04T10:08:28.552Z,10.12
2022-10-04T10:09:28.212Z,10.17
2022-10-04T10:10:28.184Z,10.19
2022-10-04T10:11:28.154Z,10.30
2022-10-04T10:12:28.141Z,10.37
2022-10-04T10:13:31.897Z,10.44
2022-10-04T10:14:28.112Z,10.51
2022-10-04T10:15:28.117Z,10.56
2022-10-04T10:16:28.225Z,10.66
2022-10-04T10:17:28.074Z,10.74
2022-10-04T10:18:28.065Z,10.83
2022-10-04T10:19:28.527Z,10.94
2022-10-04T10:20:28.053Z,10.98
2022-10-04T10:21:28.725Z,10.99
2022-10-04T10:22:28.055Z,11.01
2022-10-04T10:23:28.021Z,11.02
2022-10-04T10:24:28.007Z,11.06
2022-10-04T10:25:27.997Z,11.03
2022-10-04T10:26:27.988Z,11.06
2022-10-04T10:27:27.978Z,11.07
2022-10-04T10:28:28.088Z,11.06
2022-10-04T10:29:28.003Z,11.03
2022-10-04T10:30:27.967Z,11.01
2022-10-04T10:31:28.022Z,10.99
2022-10-04T10:32:27.918Z,11.03
2022-10-04T10:33:27.919Z,11.07
2022-10-04T10:34:27.939Z,11.10
2022-10-04T10:35:27.888Z,11.10
2022-10-04T10:36:27.880Z,11.13
2022-10-04T10:37:27.870Z,11.14
2022-10-04T10:38:27.862Z,11.17
2022-10-04T10:39:27.851Z,11.25
2022-10-04T10:40:27.872Z,11.32
2022-10-04T10:41:27.831Z,11.32
2022-10-04T10:42:27.838Z,11.34
2022-10-04T10:43:27.820Z,11.34
2022-10-04T10:44:27.804Z,11.35
2022-10-04T10:45:27.795Z,11.39
2022-10-04T10:46:27.876Z,11.43
2022-10-04T10:47:27.773Z,11.43
2022-10-04T10:48:27.754Z,11.44
2022-10-04T10:49:27.752Z,11.46
2022-10-04T10:50:27.731Z,11.50
2022-10-04T10:51:27.814Z,11.54
2022-10-04T10:52:27.744Z,11.54
2022-10-04T10:53:27.713Z,11.57
2022-10-04T10:54:27.693Z,11.59
2022-10-04T10:55:27.684Z,11.67
2022-10-04T10:56:30.202Z,11.74
2022-10-04T10:57:27.666Z,11.85
2022-10-04T10:58:27.735Z,11.90
2022-10-04T10:59:27.647Z,12.04
2022-10-04T11:00:27.626Z,12.11
2022-10-04T11:01:27.732Z,12.13
2022-10-04T11:02:47.701Z,12.11
2022-10-04T11:03:32.105Z,12.12
2022-10-04T11:04:27.594Z,12.13
2022-10-04T11:05:27.588Z,12.15
2022-10-04T11:06:27.595Z,12.21
2022-10-04T11:07:27.560Z,12.31
2022-10-04T11:08:27.552Z,12.34
2022-10-04T11:09:27.569Z,12.37
2022-10-04T11:10:27.520Z,12.37
2022-10-04T11:11:27.520Z,12.41
2022-10-04T11:12:27.531Z,12.48
2022-10-04T11:13:27.512Z,12.48
2022-10-04T11:14:27.548Z,12.48
2022-10-04T11:15:27.942Z,12.46
2022-10-04T11:16:27.571Z,12.48
2022-10-04T11:17:27.475Z,12.48
2022-10-04T11:18:27.451Z,12.51
2022-10-04T11:19:27.451Z,12.51
2022-10-04T11:20:27.422Z,12.54
2022-10-04T11:21:27.450Z,12.59
2022-10-04T11:22:28.094Z,12.63
2022-10-04T11:23:27.404Z,12.62
2022-10-04T11:24:27.396Z,12.57
2022-10-04T11:25:27.383Z,12.52
2022-10-04T11:26:27.375Z,12.56
2022-10-04T11:27:27.383Z,12.60
2022-10-04T11:28:28.107Z,12.69
2022-10-04T11:29:27.444Z,12.79
2022-10-04T11:30:27.325Z,12.82
2022-10-04T11:31:27.437Z,12.87
2022-10-04T11:32:27.310Z,12.96
2022-10-04T11:33:27.337Z,13.00
2022-10-04T11:34:27.287Z,12.97
2022-10-04T11:35:27.285Z,12.96
2022-10-04T11:36:27.265Z,12.99
2022-10-04T11:37:27.257Z,13.03
2022-10-04T11:38:27.252Z,13.09
2022-10-04T11:39:27.268Z,13.09
2022-10-04T11:40:27.230Z,13.07
2022-10-04T11:41:27.221Z,13.00
2022-10-04T11:42:27.208Z,13.02
2022-10-04T11:43:27.200Z,12.99
2022-10-04T11:44:27.189Z,12.96
2022-10-04T11:45:27.242Z,12.88
2022-10-04T11:46:27.217Z,12.85
2022-10-04T11:47:27.157Z,12.82
2022-10-04T11:48:27.141Z,12.79
2022-10-04T11:49:27.130Z,12.75
2022-10-04T11:50:27.121Z,12.79
2022-10-04T11:51:27.149Z,12.84
2022-10-04T11:52:27.111Z,12.88
2022-10-04T11:53:27.089Z,12.92
2022-10-04T11:54:27.112Z,12.95
2022-10-04T11:55:27.072Z,12.99
2022-10-04T11:56:27.054Z,13.03
2022-10-04T11:57:27.079Z,13.12
2022-10-04T11:58:27.054Z,13.18
2022-10-04T11:59:27.024Z,13.25
2022-10-04T12:00:27.037Z,13.36
2022-10-04T12:01:26.996Z,13.40
2022-10-04T12:02:26.985Z,13.41
2022-10-04T12:03:27.182Z,13.52
2022-10-04T12:04:27.011Z,13.63
2022-10-04T12:05:26.968Z,13.74
2022-10-04T12:06:26.947Z,13.76
2022-10-04T12:07:26.939Z,13.74
2022-10-04T12:08:26.930Z,13.55
2022-10-04T12:09:26.966Z,13.47
2022-10-04T12:10:26.914Z,13.46
2022-10-04T12:11:26.899Z,13.47
2022-10-04T12:12:26.889Z,13.51
2022-10-04T12:13:26.878Z,13.55
2022-10-04T12:14:26.867Z,13.55
2022-10-04T12:15:26.898Z,13.54
2022-10-04T12:16:26.943Z,13.51
2022-10-04T12:17:26.840Z,13.47
2022-10-04T12:18:26.841Z,13.51
2022-10-04T12:19:26.819Z,13.46
2022-10-04T12:20:26.801Z,13.40
2022-10-04T12:21:26.823Z,13.32
2022-10-04T12:22:26.792Z,13.27
2022-10-04T12:23:26.787Z,13.22
2022-10-04T12:24:26.762Z,13.18
2022-10-04T12:25:26.759Z,13.18
2022-10-04T12:26:26.741Z,13.17
2022-10-04T12:27:26.782Z,13.18
2022-10-04T12:28:26.787Z,13.17
2022-10-04T12:29:26.721Z,13.14
2022-10-04T12:30:26.694Z,13.15
2022-10-04T12:31:26.742Z,13.18
2022-10-04T12:32:26.682Z,13.25
2022-10-04T12:33:26.705Z,13.40
2022-10-04T12:34:26.657Z,13.51
2022-10-04T12:35:26.647Z,13.59
2022-10-04T12:36:26.642Z,13.69
2022-10-04T12:37:26.635Z,13.74
2022-10-04T12:38:26.617Z,13.73
2022-10-04T12:39:26.647Z,13.73
2022-10-04T12:40:26.601Z,13.65
2022-10-04T12:41:26.594Z,13.65
2022-10-04T12:42:31.626Z,13.58
2022-10-04T12:43:27.566Z,13.55
2022-10-04T12:44:26.557Z,13.52
2022-10-04T12:45:26.650Z,13.46
2022-10-04T12:46:26.542Z,13.44
2022-10-04T12:47:26.537Z,13.41
2022-10-04T12:48:26.523Z,13.36
2022-10-04T12:49:26.509Z,13.27
2022-10-04T12:50:26.501Z,13.22
2022-10-04T12:51:26.509Z,13.18
2022-10-04T12:52:26.470Z,13.11
2022-10-04T12:53:26.502Z,13.04
2022-10-04T12:54:26.453Z,13.00
2022-10-04T12:55:26.483Z,12.96
2022-10-04T12:56:26.433Z,12.96
2022-10-04T12:57:26.452Z,12.93
2022-10-04T12:58:26.412Z,12.93
2022-10-04T12:59:26.402Z,12.82
2022-10-04T13:00:26.385Z,12.79
2022-10-04T13:01:26.493Z,12.78
2022-10-04T13:02:26.416Z,12.75
2022-10-04T13:03:26.389Z,12.70
2022-10-04T13:04:26.355Z,12.67
2022-10-04T13:05:26.343Z,12.66
2022-10-04T13:06:26.326Z,12.63
2022-10-04T13:07:26.319Z,12.63
2022-10-04T13:08:26.307Z,12.59
2022-10-04T13:09:26.324Z,12.54
2022-10-04T13:10:26.326Z,12.51
2022-10-04T13:11:26.268Z,12.49
2022-10-04T13:12:26.268Z,12.46